Time;durP1;ratioP1;P1;durP2;ratioP2;P2;SDS_P1;SDS_P2;PMS_P1;PMS_P2;Temp;Humidity;BMP_temperature;BMP_pressure;BME280_temperature;BME280_humidity;BME280_pressure;Samples;Min_cycle;Max_cycle;Signal;HPM_P1;HPM_P2
2022/12/27 00:00:29;;;;;;;5.40;1.80;;;;;;;;;;5094775;28;20881;-64
2022/12/27 00:02:56;;;;;;;9.03;1.87;;;;;;;;;;5094989;28;20549;-64
2022/12/27 00:05:23;;;;;;;5.93;2.10;;;;;;;;;;5094819;28;20456;-64
2022/12/27 00:07:51;;;;;;;7.83;1.70;;;;;;;;;;5094743;28;20569;-64
2022/12/27 00:10:18;;;;;;;3.80;1.57;;;;;;;;;;5094681;28;20442;-64
2022/12/27 00:12:45;;;;;;;6.37;1.40;;;;;;;;;;5094545;28;20541;-64
2022/12/27 00:15:12;;;;;;;5.40;1.40;;;;;;;;;;5094506;28;20456;-64
2022/12/27 00:17:39;;;;;;;6.70;1.57;;;;;;;;;;5094628;28;20454;-64
2022/12/27 00:20:06;;;;;;;4.00;1.03;;;;;;;;;;5094586;28;20486;-64
2022/12/27 00:22:33;;;;;;;11.70;1.87;;;;;;;;;;5094430;28;20473;-64
2022/12/27 00:25:02;;;;;;;6.53;1.47;;;;;;;;;;5094389;28;20810;-64
2022/12/27 00:27:29;;;;;;;8.30;2.00;;;;;;;;;;5094126;28;20456;-64
2022/12/27 00:29:56;;;;;;;11.50;1.40;;;;;;;;;;5093596;28;20492;-64
2022/12/27 00:32:22;;;;;;;8.20;2.50;;;;;;;;;;5094381;28;20446;-64
2022/12/27 00:34:49;;;;;;;2.70;1.20;;;;;;;;;;5094243;28;20461;-64
2022/12/27 00:37:16;;;;;;;5.23;2.13;;;;;;;;;;5094083;28;21023;-64
2022/12/27 00:39:43;;;;;;;8.03;1.43;;;;;;;;;;5094075;28;20520;-64
2022/12/27 00:42:11;;;;;;;6.83;1.30;;;;;;;;;;5093938;28;20453;-64
2022/12/27 00:44:38;;;;;;;5.63;1.60;;;;;;;;;;5093923;28;20482;-64
2022/12/27 00:47:05;;;;;;;6.67;1.60;;;;;;;;;;5094059;28;20537;-64
2022/12/27 00:49:32;;;;;;;4.07;1.70;;;;;;;;;;5093878;28;20480;-64
2022/12/27 00:51:59;;;;;;;9.67;1.50;;;;;;;;;;5093868;28;20541;-64
2022/12/27 00:54:26;;;;;;;5.70;1.70;;;;;;;;;;5093756;28;20450;-64
2022/12/27 00:56:53;;;;;;;9.27;1.60;;;;;;;;;;5093755;28;20231;-64
2022/12/27 00:59:21;;;;;;;7.00;1.50;;;;;;;;;;5093877;28;20806;-64
2022/12/27 01:01:49;;;;;;;9.27;1.50;;;;;;;;;;5093762;28;20545;-64
2022/12/27 01:04:16;;;;;;;5.33;1.30;;;;;;;;;;5093684;28;20534;-63
2022/12/27 01:06:43;;;;;;;6.70;1.20;;;;;;;;;;5093658;28;20875;-63
2022/12/27 01:09:10;;;;;;;5.20;1.83;;;;;;;;;;5093432;28;20481;-64
2022/12/27 01:11:37;;;;;;;5.40;1.50;;;;;;;;;;5093658;28;20537;-64
2022/12/27 01:14:05;;;;;;;4.77;1.30;;;;;;;;;;5093546;28;20447;-64
2022/12/27 01:16:34;;;;;;;6.10;1.67;;;;;;;;;;5093487;28;20456;-64
2022/12/27 01:19:01;;;;;;;4.43;1.40;;;;;;;;;;5093443;28;21010;-64
2022/12/27 01:21:29;;;;;;;3.27;1.27;;;;;;;;;;5093353;28;20542;-64
2022/12/27 01:23:56;;;;;;;6.87;1.53;;;;;;;;;;5093200;28;20457;-64
2022/12/27 01:26:24;;;;;;;3.40;1.37;;;;;;;;;;5093404;28;20454;-64
2022/12/27 01:28:51;;;;;;;5.47;1.30;;;;;;;;;;5093110;28;20473;-64
2022/12/27 01:31:19;;;;;;;5.37;1.60;;;;;;;;;;5093175;28;20941;-64
2022/12/27 01:33:47;;;;;;;3.63;1.80;;;;;;;;;;5093210;28;20559;-64
2022/12/27 01:36:15;;;;;;;4.30;1.57;;;;;;;;;;5093160;28;20552;-64
2022/12/27 01:38:42;;;;;;;4.57;1.40;;;;;;;;;;5093330;28;20538;-64
2022/12/27 01:43:54;;;;;;;3.00;1.33;;;;;;;;;;5093003;28;20491;-64
2022/12/27 01:46:21;;;;;;;6.30;2.10;;;;;;;;;;5092867;28;20477;-64
2022/12/27 01:48:50;;;;;;;5.17;1.30;;;;;;;;;;5092804;28;20569;-64
2022/12/27 01:51:17;;;;;;;6.18;1.77;;;;;;;;;;5093218;28;20450;-64
2022/12/27 01:53:45;;;;;;;8.50;2.17;;;;;;;;;;5093074;28;20204;-64
2022/12/27 01:56:15;;;;;;;9.17;1.63;;;;;;;;;;5093056;28;20447;-64
2022/12/27 01:58:44;;;;;;;6.78;1.40;;;;;;;;;;5093015;28;20449;-64
2022/12/27 02:01:13;;;;;;;5.93;1.40;;;;;;;;;;5092891;28;20225;-64
2022/12/27 02:03:42;;;;;;;4.87;1.70;;;;;;;;;;5093320;28;20442;-64
2022/12/27 02:06:12;;;;;;;6.97;1.70;;;;;;;;;;5092992;28;20443;-64
2022/12/27 02:08:41;;;;;;;5.03;1.30;;;;;;;;;;5092841;28;20473;-64
2022/12/27 02:11:09;;;;;;;4.60;1.50;;;;;;;;;;5092866;28;20538;-63
2022/12/27 02:13:37;;;;;;;4.80;2.23;;;;;;;;;;5092799;28;20282;-64
2022/12/27 02:16:10;;;;;;;4.67;1.63;;;;;;;;;;5092729;28;20505;-63
2022/12/27 02:18:37;;;;;;;2.53;1.38;;;;;;;;;;5092903;28;20457;-64
2022/12/27 02:21:21;;;;;;;5.47;1.48;;;;;;;;;;5092836;28;20188;-64
2022/12/27 02:24:14;;;;;;;5.37;1.67;;;;;;;;;;5092734;28;20550;-63
2022/12/27 02:26:49;;;;;;;4.77;1.30;;;;;;;;;;5092860;28;20465;-63
2022/12/27 02:29:23;;;;;;;8.43;1.73;;;;;;;;;;5092691;28;20487;-64
2022/12/27 02:31:53;;;;;;;4.70;1.20;;;;;;;;;;5092725;28;20544;-64
2022/12/27 02:34:23;;;;;;;9.75;2.63;;;;;;;;;;5092618;28;20541;-63
2022/12/27 02:36:52;;;;;;;12.20;2.50;;;;;;;;;;5092537;28;20278;-63
2022/12/27 02:39:19;;;;;;;7.55;1.55;;;;;;;;;;5092660;28;20481;-64
2022/12/27 02:53:06;;;;;;;4.23;1.20;;;;;;;;;;5093672;28;20242;-64
2022/12/27 02:58:41;;;;;;;4.82;1.10;;;;;;;;;;5096261;28;20194;-64
2022/12/27 03:04:09;;;;;;;4.00;1.10;;;;;;;;;;5096049;28;20467;-64
2022/12/27 03:06:44;;;;;;;7.60;2.03;;;;;;;;;;5096079;28;20448;-64
2022/12/27 03:17:53;;;;;;;4.43;1.30;;;;;;;;;;5013529;28;20607;-63
2022/12/27 03:25:48;;;;;;;10.35;2.20;;;;;;;;;;5061571;28;20446;-63
2022/12/27 03:34:03;;;;;;;6.85;1.20;;;;;;;;;;5095424;28;20856;-64
2022/12/27 03:39:28;;;;;;;5.95;1.80;;;;;;;;;;5058898;28;20199;-64
2022/12/27 03:44:44;;;;;;;5.93;1.30;;;;;;;;;;5095106;28;20313;-64
2022/12/27 03:47:16;;;;;;;6.50;1.60;;;;;;;;;;5095074;28;20456;-64
2022/12/27 03:49:48;;;;;;;3.72;1.63;;;;;;;;;;5094936;28;20215;-64
2022/12/27 03:52:17;;;;;;;6.78;1.88;;;;;;;;;;5095239;28;20196;-64
2022/12/27 03:54:46;;;;;;;9.17;1.40;;;;;;;;;;5095126;28;20282;-64
2022/12/27 03:57:14;;;;;;;6.50;1.48;;;;;;;;;;5094952;28;20541;-64
2022/12/27 03:59:41;;;;;;;7.93;1.30;;;;;;;;;;5094877;28;20187;-64
2022/12/27 04:02:08;;;;;;;6.60;2.28;;;;;;;;;;5094714;28;20456;-64
2022/12/27 04:04:35;;;;;;;4.00;2.30;;;;;;;;;;5094920;28;20629;-64
2022/12/27 04:07:04;;;;;;;2.65;1.40;;;;;;;;;;5094713;28;20672;-64
2022/12/27 04:36:59;;;;;;;4.18;1.85;;;;;;;;;;5094241;28;20213;-63
2022/12/27 04:39:27;;;;;;;5.65;1.65;;;;;;;;;;5094121;28;20271;-64
2022/12/27 04:55:40;;;;;;;5.40;1.55;;;;;;;;;;5093843;28;20726;-63
2022/12/27 04:58:07;;;;;;;4.80;1.63;;;;;;;;;;5093695;28;20187;-64
2022/12/27 05:03:20;;;;;;;3.15;1.40;;;;;;;;;;5093741;28;20561;-64
2022/12/27 05:05:47;;;;;;;1.70;1.00;;;;;;;;;;5093768;28;20282;-63
2022/12/27 05:16:30;;;;;;;4.38;1.60;;;;;;;;;;5092821;28;20187;-64
2022/12/27 05:18:57;;;;;;;4.65;1.80;;;;;;;;;;5093531;28;20595;-63
2022/12/27 05:21:24;;;;;;;3.42;1.40;;;;;;;;;;5093416;28;20275;-64
2022/12/27 05:26:38;;;;;;;1.30;1.10;;;;;;;;;;5093343;28;20199;-64
2022/12/27 05:29:06;;;;;;;5.32;1.80;;;;;;;;;;5093289;28;20215;-63
2022/12/27 05:31:33;;;;;;;3.15;1.20;;;;;;;;;;5093181;28;20710;-64
2022/12/27 05:34:00;;;;;;;5.68;1.50;;;;;;;;;;5093118;28;20193;-63
2022/12/27 05:36:27;;;;;;;2.88;1.38;;;;;;;;;;5093387;28;20278;-64
2022/12/27 05:38:54;;;;;;;2.45;1.55;;;;;;;;;;5093312;28;20283;-63
2022/12/27 05:41:21;;;;;;;6.47;1.77;;;;;;;;;;5093227;28;20642;-64
2022/12/27 05:43:50;;;;;;;3.15;1.48;;;;;;;;;;5093088;28;20612;-63
2022/12/27 05:46:18;;;;;;;4.40;2.10;;;;;;;;;;5092892;28;20309;-64
2022/12/27 05:48:45;;;;;;;5.10;1.20;;;;;;;;;;5092948;28;20199;-64
2022/12/27 05:51:13;;;;;;;3.47;1.27;;;;;;;;;;5093138;28;20715;-64
2022/12/27 05:53:40;;;;;;;1.95;1.10;;;;;;;;;;5093033;28;20187;-63
2022/12/27 05:56:07;;;;;;;7.47;1.83;;;;;;;;;;5092870;28;20223;-63
2022/12/27 05:58:34;;;;;;;3.90;1.63;;;;;;;;;;5092887;28;20197;-64
2022/12/27 06:01:08;;;;;;;2.95;1.25;;;;;;;;;;5093107;28;20219;-64
2022/12/27 06:03:35;;;;;;;6.22;1.45;;;;;;;;;;5093097;28;20284;-64
2022/12/27 06:06:02;;;;;;;4.10;1.13;;;;;;;;;;5093005;28;20278;-63
2022/12/27 06:08:29;;;;;;;2.10;1.10;;;;;;;;;;5092957;28;20205;-64
2022/12/27 06:11:03;;;;;;;2.92;1.10;;;;;;;;;;5092618;28;20589;-64
2022/12/27 06:13:30;;;;;;;3.45;1.23;;;;;;;;;;5092629;28;20553;-64
2022/12/27 06:15:58;;;;;;;1.30;1.10;;;;;;;;;;5092717;28;20646;-64
2022/12/27 06:18:27;;;;;;;2.63;1.05;;;;;;;;;;5092743;28;20716;-64
2022/12/27 06:20:54;;;;;;;3.47;1.10;;;;;;;;;;5092835;28;20230;-64
2022/12/27 06:23:20;;;;;;;4.72;1.92;;;;;;;;;;5092765;28;20191;-64
2022/12/27 06:25:47;;;;;;;2.70;0.90;;;;;;;;;;5092663;28;20203;-63
2022/12/27 06:28:14;;;;;;;3.40;1.30;;;;;;;;;;5094882;28;20278;-64
2022/12/27 06:30:42;;;;;;;2.78;1.75;;;;;;;;;;5096597;28;20655;-63
2022/12/27 06:33:08;;;;;;;4.13;1.17;;;;;;;;;;5096662;28;20623;-64
2022/12/27 06:35:37;;;;;;;1.95;1.10;;;;;;;;;;5096634;28;20613;-63
2022/12/27 06:38:04;;;;;;;3.20;1.48;;;;;;;;;;5096448;28;20629;-63
2022/12/27 06:40:31;;;;;;;8.35;1.63;;;;;;;;;;5096303;28;20601;-64
2022/12/27 06:42:58;;;;;;;5.78;1.35;;;;;;;;;;5096509;28;20197;-63
2022/12/27 06:45:25;;;;;;;2.25;1.52;;;;;;;;;;5096043;28;20716;-64
2022/12/27 06:47:51;;;;;;;4.35;1.75;;;;;;;;;;5096324;28;20197;-64
2022/12/27 06:50:18;;;;;;;3.15;1.40;;;;;;;;;;5096220;28;20579;-64
2022/12/27 06:52:47;;;;;;;4.63;1.70;;;;;;;;;;5096090;28;20558;-64
2022/12/27 06:55:14;;;;;;;6.15;1.60;;;;;;;;;;5096300;28;20282;-64
2022/12/27 06:57:41;;;;;;;11.35;3.15;;;;;;;;;;5096150;28;20198;-64
2022/12/27 07:00:08;;;;;;;6.68;1.40;;;;;;;;;;5096049;28;20633;-64
2022/12/27 07:02:35;;;;;;;3.33;1.60;;;;;;;;;;5096096;28;20599;-64
2022/12/27 07:05:02;;;;;;;3.38;1.50;;;;;;;;;;5095950;28;20198;-64
2022/12/27 07:07:29;;;;;;;4.93;1.50;;;;;;;;;;5095781;28;20218;-64
2022/12/27 07:09:58;;;;;;;2.55;1.25;;;;;;;;;;5095952;28;20244;-64
2022/12/27 07:12:25;;;;;;;1.92;1.30;;;;;;;;;;5095662;28;20717;-64
2022/12/27 07:14:52;;;;;;;2.88;1.55;;;;;;;;;;5095807;28;20282;-64
2022/12/27 07:17:18;;;;;;;3.38;1.50;;;;;;;;;;5095796;28;20191;-64
2022/12/27 07:19:47;;;;;;;4.38;1.50;;;;;;;;;;5095602;28;20193;-64
2022/12/27 07:22:13;;;;;;;2.13;1.23;;;;;;;;;;5095439;28;20641;-64
2022/12/27 07:24:40;;;;;;;3.55;1.40;;;;;;;;;;5095622;28;20196;-64
2022/12/27 07:27:09;;;;;;;3.00;1.63;;;;;;;;;;5095668;28;20279;-64
2022/12/27 07:29:36;;;;;;;1.27;1.10;;;;;;;;;;5095472;28;20237;-64
2022/12/27 07:32:02;;;;;;;4.50;1.73;;;;;;;;;;5095347;28;20722;-64
2022/12/27 07:34:29;;;;;;;7.97;1.58;;;;;;;;;;5095368;28;20187;-64
2022/12/27 07:36:56;;;;;;;5.05;1.52;;;;;;;;;;5095225;28;20194;-64
2022/12/27 07:39:23;;;;;;;2.38;1.52;;;;;;;;;;5095123;28;20285;-64
2022/12/27 07:41:50;;;;;;;3.47;1.70;;;;;;;;;;5095254;28;20230;-64
2022/12/27 07:44:18;;;;;;;4.25;1.90;;;;;;;;;;5095011;28;20190;-64
2022/12/27 07:46:45;;;;;;;2.35;1.77;;;;;;;;;;5095214;28;20524;-63
2022/12/27 07:49:13;;;;;;;3.15;1.70;;;;;;;;;;5094960;28;20278;-64
2022/12/27 07:51:39;;;;;;;2.00;1.48;;;;;;;;;;5094958;28;20259;-64
2022/12/27 07:54:06;;;;;;;4.15;1.85;;;;;;;;;;5095130;28;20187;-63
2022/12/27 07:56:33;;;;;;;2.10;1.45;;;;;;;;;;5095074;28;20217;-64
2022/12/27 07:59:01;;;;;;;5.68;1.40;;;;;;;;;;5094789;28;20654;-64
2022/12/27 08:02:02;;;;;;;3.67;1.80;;;;;;;;;;5094905;28;20277;-64
2022/12/27 08:04:18;;;;;;;5.65;1.88;;;;;;;;;;5094646;28;20195;-64
2022/12/27 08:06:45;;;;;;;5.15;1.65;;;;;;;;;;5094940;28;20281;-64
2022/12/27 08:09:13;;;;;;;2.58;1.58;;;;;;;;;;5094855;28;20187;-64
2022/12/27 08:11:40;;;;;;;2.08;1.20;;;;;;;;;;5094596;28;20716;-64
2022/12/27 08:14:07;;;;;;;10.07;1.90;;;;;;;;;;5094503;28;20187;-64
2022/12/27 08:16:35;;;;;;;5.57;2.05;;;;;;;;;;5094765;28;20199;-64
2022/12/27 08:19:02;;;;;;;4.55;1.60;;;;;;;;;;5094672;28;20620;-64
2022/12/27 08:21:29;;;;;;;4.20;1.80;;;;;;;;;;5094530;28;20287;-64
2022/12/27 08:23:56;;;;;;;5.15;2.70;;;;;;;;;;5094488;28;20277;-64
2022/12/27 08:26:23;;;;;;;3.35;1.90;;;;;;;;;;5094382;28;20281;-64
2022/12/27 08:28:51;;;;;;;3.58;2.17;;;;;;;;;;5094235;28;20198;-64
2022/12/27 08:31:20;;;;;;;2.35;1.52;;;;;;;;;;5094382;28;20219;-64
2022/12/27 08:33:49;;;;;;;4.55;2.55;;;;;;;;;;5094336;28;20195;-64
2022/12/27 08:36:16;;;;;;;6.93;3.08;;;;;;;;;;5094248;28;20190;-64
2022/12/27 08:38:43;;;;;;;5.35;1.83;;;;;;;;;;5094116;28;20191;-64
2022/12/27 08:41:10;;;;;;;3.38;1.92;;;;;;;;;;5094010;28;20202;-64
2022/12/27 08:43:37;;;;;;;9.23;2.60;;;;;;;;;;5094269;28;20273;-64
2022/12/27 08:46:06;;;;;;;7.25;2.78;;;;;;;;;;5093804;28;20662;-64
2022/12/27 08:48:36;;;;;;;4.50;3.65;;;;;;;;;;5094022;28;20191;-64
2022/12/27 08:51:05;;;;;;;4.00;2.00;;;;;;;;;;5093147;28;20215;-64
2022/12/27 08:53:32;;;;;;;4.13;2.00;;;;;;;;;;5093812;28;20281;-64
2022/12/27 08:55:59;;;;;;;3.38;1.63;;;;;;;;;;5093793;28;20298;-64
2022/12/27 08:58:26;;;;;;;3.28;1.85;;;;;;;;;;5093809;28;20221;-63
2022/12/27 09:00:53;;;;;;;3.25;1.45;;;;;;;;;;5093572;28;20190;-63
2022/12/27 09:03:21;;;;;;;3.50;2.05;;;;;;;;;;5093696;28;20192;-63
2022/12/27 09:05:49;;;;;;;3.38;2.72;;;;;;;;;;5093740;28;20693;-63
2022/12/27 09:08:17;;;;;;;2.60;2.05;;;;;;;;;;5093531;28;20300;-63
2022/12/27 09:10:44;;;;;;;6.05;2.08;;;;;;;;;;5093711;28;20649;-63
2022/12/27 09:13:11;;;;;;;4.03;1.60;;;;;;;;;;5093422;28;20202;-64
2022/12/27 09:15:38;;;;;;;4.90;2.85;;;;;;;;;;5093591;28;20287;-63
2022/12/27 09:18:06;;;;;;;2.67;1.60;;;;;;;;;;5093401;28;20283;-63
2022/12/27 09:20:33;;;;;;;7.20;2.20;;;;;;;;;;5093323;28;20282;-63
2022/12/27 09:23:00;;;;;;;4.50;1.85;;;;;;;;;;5093245;28;20282;-63
2022/12/27 09:25:28;;;;;;;2.72;1.92;;;;;;;;;;5093434;28;20216;-63
2022/12/27 09:27:55;;;;;;;1.88;1.55;;;;;;;;;;5093238;28;20195;-63
2022/12/27 09:30:22;;;;;;;5.35;2.20;;;;;;;;;;5093365;28;20295;-64
2022/12/27 09:32:49;;;;;;;5.20;2.20;;;;;;;;;;5093217;28;20200;-64
2022/12/27 09:35:16;;;;;;;8.18;1.70;;;;;;;;;;5093015;28;20570;-64
2022/12/27 09:37:43;;;;;;;3.10;1.42;;;;;;;;;;5093013;28;20192;-64
2022/12/27 09:40:14;;;;;;;3.03;1.55;;;;;;;;;;5093251;28;20297;-64
2022/12/27 09:42:46;;;;;;;4.82;1.90;;;;;;;;;;5093096;28;20192;-63
2022/12/27 09:45:14;;;;;;;6.45;1.70;;;;;;;;;;5092856;28;20310;-64
2022/12/27 09:47:45;;;;;;;4.67;2.17;;;;;;;;;;5092898;28;20196;-63
2022/12/27 09:50:14;;;;;;;4.07;2.00;;;;;;;;;;5092856;28;20441;-63
2022/12/27 09:52:43;;;;;;;3.92;1.95;;;;;;;;;;5092714;28;20200;-67
2022/12/27 09:55:12;;;;;;;5.25;2.00;;;;;;;;;;5091244;28;20231;-60
2022/12/27 09:57:40;;;;;;;3.28;1.67;;;;;;;;;;5092739;28;20279;-60
2022/12/27 10:00:14;;;;;;;2.10;1.80;;;;;;;;;;5092568;28;20312;-57
2022/12/27 10:02:43;;;;;;;5.03;1.80;;;;;;;;;;5095897;28;20189;-65
2022/12/27 10:05:15;;;;;;;3.22;1.38;;;;;;;;;;5097204;28;20458;-59
2022/12/27 10:07:47;;;;;;;2.97;1.80;;;;;;;;;;5096924;28;20191;-70
2022/12/27 10:10:19;;;;;;;3.33;1.77;;;;;;;;;;5096847;28;20282;-63
2022/12/27 10:12:57;;;;;;;2.72;2.25;;;;;;;;;;5096810;28;20553;-60
2022/12/27 10:15:29;;;;;;;3.33;1.90;;;;;;;;;;5097054;28;20238;-67
2022/12/27 10:18:01;;;;;;;4.45;1.83;;;;;;;;;;5096984;28;20283;-71
2022/12/27 10:20:33;;;;;;;5.00;2.00;;;;;;;;;;5096601;28;20286;-66
2022/12/27 10:23:03;;;;;;;4.20;2.10;;;;;;;;;;5096804;28;20453;-62
2022/12/27 10:25:30;;;;;;;3.90;2.00;;;;;;;;;;5096564;28;20329;-70
2022/12/27 10:27:59;;;;;;;4.20;1.83;;;;;;;;;;5096759;28;20422;-60
2022/12/27 10:30:28;;;;;;;4.47;2.17;;;;;;;;;;5096596;28;20547;-64
2022/12/27 10:32:55;;;;;;;2.80;1.77;;;;;;;;;;5096687;28;20453;-63
2022/12/27 10:35:23;;;;;;;4.33;1.97;;;;;;;;;;5096431;28;20447;-61
2022/12/27 10:37:52;;;;;;;2.60;1.93;;;;;;;;;;5096391;28;20984;-63
2022/12/27 10:40:21;;;;;;;5.40;2.00;;;;;;;;;;5096448;28;20472;-67
2022/12/27 10:42:52;;;;;;;4.33;2.10;;;;;;;;;;5096368;28;20191;-61
2022/12/27 10:45:28;;;;;;;5.20;2.50;;;;;;;;;;5096102;28;20477;-64
2022/12/27 10:47:56;;;;;;;5.13;2.77;;;;;;;;;;5095975;28;20498;-67
2022/12/27 10:50:25;;;;;;;5.30;1.90;;;;;;;;;;5096007;28;20457;-67
2022/12/27 10:52:52;;;;;;;5.90;2.28;;;;;;;;;;5096137;28;20274;-64
2022/12/27 10:55:31;;;;;;;2.80;1.73;;;;;;;;;;5096103;28;20614;-64
2022/12/27 10:57:58;;;;;;;5.37;2.10;;;;;;;;;;5096075;28;20471;-61
2022/12/27 11:00:25;;;;;;;6.93;2.40;;;;;;;;;;5095805;28;20539;-61
2022/12/27 11:02:54;;;;;;;3.70;2.10;;;;;;;;;;5095770;28;20823;-63
2022/12/27 11:05:22;;;;;;;6.67;2.33;;;;;;;;;;5095925;28;20482;-65
2022/12/27 11:07:49;;;;;;;3.70;1.80;;;;;;;;;;5095685;28;20489;-67
2022/12/27 11:10:17;;;;;;;7.10;2.23;;;;;;;;;;5095613;28;20540;-57
2022/12/27 11:12:58;;;;;;;5.00;2.10;;;;;;;;;;5095398;28;20487;-57
2022/12/27 11:15:25;;;;;;;4.90;2.07;;;;;;;;;;5095362;28;20476;-64
2022/12/27 11:17:54;;;;;;;4.90;2.27;;;;;;;;;;5095571;28;20543;-65
2022/12/27 11:20:22;;;;;;;4.10;2.27;;;;;;;;;;5095533;28;21013;-63
2022/12/27 11:22:51;;;;;;;5.93;2.50;;;;;;;;;;5095631;28;20454;-60
2022/12/27 11:25:19;;;;;;;5.80;2.63;;;;;;;;;;5095268;28;20738;-60
2022/12/27 11:27:47;;;;;;;3.10;2.80;;;;;;;;;;5095295;28;20235;-61
2022/12/27 11:30:21;;;;;;;7.80;2.73;;;;;;;;;;5095245;28;20458;-61
2022/12/27 11:32:49;;;;;;;9.65;3.25;;;;;;;;;;5095126;28;20489;-61
2022/12/27 11:35:18;;;;;;;5.00;2.40;;;;;;;;;;5095061;28;20635;-60
2022/12/27 11:37:45;;;;;;;5.50;2.80;;;;;;;;;;5095221;28;20450;-60
2022/12/27 11:40:21;;;;;;;3.35;2.17;;;;;;;;;;5095214;28;20456;-60
2022/12/27 11:42:49;;;;;;;3.10;1.95;;;;;;;;;;5095300;28;20237;-60
2022/12/27 11:45:21;;;;;;;7.82;2.63;;;;;;;;;;5095076;28;20245;-61
2022/12/27 11:47:52;;;;;;;3.93;3.20;;;;;;;;;;5094985;28;20253;-62
2022/12/27 11:50:28;;;;;;;7.10;3.22;;;;;;;;;;5094773;28;20492;-63
2022/12/27 11:53:08;;;;;;;11.77;6.20;;;;;;;;;;5094762;28;20222;-63
2022/12/27 11:55:42;;;;;;;3.00;2.67;;;;;;;;;;5095071;28;20522;-63
2022/12/27 11:58:16;;;;;;;5.63;3.03;;;;;;;;;;5095068;28;20535;-64
2022/12/27 12:00:50;;;;;;;4.20;2.50;;;;;;;;;;5094788;28;20906;-65
2022/12/27 12:03:36;;;;;;;4.90;2.40;;;;;;;;;;5094528;28;20808;-63
2022/12/27 12:06:09;;;;;;;6.70;2.30;;;;;;;;;;5094560;28;20817;-68
2022/12/27 12:08:54;;;;;;;4.93;2.00;;;;;;;;;;5094739;28;20454;-64
2022/12/27 12:11:36;;;;;;;6.33;2.37;;;;;;;;;;5094455;28;20475;-66
2022/12/27 12:14:12;;;;;;;3.20;1.90;;;;;;;;;;5094186;28;20453;-64
2022/12/27 12:16:55;;;;;;;9.40;2.73;;;;;;;;;;5094322;28;20450;-66
2022/12/27 12:19:30;;;;;;;10.17;2.17;;;;;;;;;;5094410;28;20538;-63
2022/12/27 12:22:06;;;;;;;5.70;1.93;;;;;;;;;;5094328;28;20864;-64
2022/12/27 12:24:36;;;;;;;2.40;1.93;;;;;;;;;;5093794;28;21005;-66
2022/12/27 12:27:10;;;;;;;8.30;2.50;;;;;;;;;;5093833;28;20450;-65
2022/12/27 12:29:47;;;;;;;3.00;2.77;;;;;;;;;;5094235;28;20539;-65
2022/12/27 12:32:24;;;;;;;5.83;2.23;;;;;;;;;;5094064;28;20481;-64
2022/12/27 12:35:09;;;;;;;4.85;2.35;;;;;;;;;;5094313;28;20796;-64
2022/12/27 12:37:53;;;;;;;6.17;3.30;;;;;;;;;;5084049;28;20188;-65
2022/12/27 12:40:33;;;;;;;5.60;2.50;;;;;;;;;;5094145;28;20457;-61
2022/12/27 12:43:06;;;;;;;6.60;2.80;;;;;;;;;;5093820;28;20480;-73
2022/12/27 12:45:41;;;;;;;5.97;2.73;;;;;;;;;;5093844;28;20587;-66
2022/12/27 12:48:30;;;;;;;4.30;3.30;;;;;;;;;;5093745;28;20445;-61
2022/12/27 12:51:07;;;;;;;5.40;2.33;;;;;;;;;;5068165;28;20524;-68
2022/12/27 12:53:45;;;;;;;4.70;2.92;;;;;;;;;;5093692;28;20824;-71
2022/12/27 12:56:21;;;;;;;4.47;2.20;;;;;;;;;;5093785;28;20278;-63
2022/12/27 12:58:53;;;;;;;5.65;3.05;;;;;;;;;;5093817;28;20449;-81
2022/12/27 13:01:29;;;;;;;6.53;2.33;;;;;;;;;;5093572;28;20199;-62
2022/12/27 13:04:03;;;;;;;5.40;2.57;;;;;;;;;;5093422;28;20887;-72
2022/12/27 13:06:40;;;;;;;8.27;4.60;;;;;;;;;;5093323;28;20774;-72
2022/12/27 13:09:14;;;;;;;9.00;6.03;;;;;;;;;;5093737;28;20579;-66
2022/12/27 13:11:44;;;;;;;5.80;3.47;;;;;;;;;;5093363;28;20481;-68
2022/12/27 13:14:17;;;;;;;6.23;2.90;;;;;;;;;;5093332;28;20461;-67
2022/12/27 13:16:48;;;;;;;5.10;2.57;;;;;;;;;;5093549;28;20445;-61
2022/12/27 13:19:23;;;;;;;4.10;2.47;;;;;;;;;;5093397;28;20825;-59
2022/12/27 13:21:57;;;;;;;4.87;2.17;;;;;;;;;;5093232;28;20460;-59
2022/12/27 13:24:28;;;;;;;8.50;3.20;;;;;;;;;;5092920;28;20449;-60
2022/12/27 13:27:01;;;;;;;5.07;2.90;;;;;;;;;;5093378;28;20541;-59
2022/12/27 13:29:35;;;;;;;6.53;3.53;;;;;;;;;;5093459;28;20192;-67
2022/12/27 13:32:06;;;;;;;4.50;3.20;;;;;;;;;;5093088;28;20481;-67
2022/12/27 13:34:38;;;;;;;3.77;2.70;;;;;;;;;;5093305;28;20959;-67
2022/12/27 13:37:11;;;;;;;4.03;2.50;;;;;;;;;;5092839;28;20542;-67
2022/12/27 13:39:46;;;;;;;6.97;3.50;;;;;;;;;;5093336;28;20446;-67
2022/12/27 13:42:34;;;;;;;5.73;2.47;;;;;;;;;;5093138;28;20882;-67
2022/12/27 13:45:04;;;;;;;5.80;2.93;;;;;;;;;;5092815;28;20485;-67
2022/12/27 13:47:41;;;;;;;5.70;3.00;;;;;;;;;;5092874;28;20443;-67
2022/12/27 13:50:20;;;;;;;7.37;2.97;;;;;;;;;;5093219;28;20460;-67
2022/12/27 13:52:52;;;;;;;5.17;3.30;;;;;;;;;;5092913;28;20490;-67
2022/12/27 13:55:37;;;;;;;10.20;2.80;;;;;;;;;;5092994;28;20447;-67
2022/12/27 13:58:19;;;;;;;9.90;2.40;;;;;;;;;;5092833;28;20458;-67
2022/12/27 14:00:47;;;;;;;2.80;2.53;;;;;;;;;;5092917;28;20541;-67
2022/12/27 14:03:23;;;;;;;9.07;2.97;;;;;;;;;;5092917;28;20818;-67
2022/12/27 14:05:59;;;;;;;8.57;3.00;;;;;;;;;;5092795;28;20870;-67
2022/12/27 14:08:33;;;;;;;5.27;3.90;;;;;;;;;;5092770;28;20900;-67
2022/12/27 14:11:00;;;;;;;7.63;3.97;;;;;;;;;;5093069;28;20457;-68
2022/12/27 14:13:32;;;;;;;4.83;3.10;;;;;;;;;;5092803;28;20483;-67
2022/12/27 14:16:04;;;;;;;7.50;3.10;;;;;;;;;;5092750;28;20485;-68
2022/12/27 14:18:39;;;;;;;7.97;4.47;;;;;;;;;;5092783;28;20557;-68
2022/12/27 14:21:11;;;;;;;6.63;2.73;;;;;;;;;;5092560;28;20941;-67
2022/12/27 14:23:44;;;;;;;5.60;2.80;;;;;;;;;;5092824;28;20859;-67
2022/12/27 14:26:24;;;;;;;7.27;2.80;;;;;;;;;;5092636;28;20528;-67
2022/12/27 14:29:14;;;;;;;5.03;2.40;;;;;;;;;;5092505;28;20455;-67
2022/12/27 14:32:09;;;;;;;7.60;3.03;;;;;;;;;;5092766;28;20538;-68
2022/12/27 14:34:55;;;;;;;7.73;2.53;;;;;;;;;;5092693;28;20537;-67
2022/12/27 14:37:37;;;;;;;3.80;3.00;;;;;;;;;;5092500;28;20553;-68
2022/12/27 14:40:23;;;;;;;3.40;2.60;;;;;;;;;;5092602;28;20537;-68
2022/12/27 14:43:07;;;;;;;15.30;2.83;;;;;;;;;;5092538;28;20449;-67
2022/12/27 14:45:52;;;;;;;4.87;2.87;;;;;;;;;;5092437;28;20470;-67
2022/12/27 14:48:27;;;;;;;4.10;2.22;;;;;;;;;;5093280;28;20449;-67
2022/12/27 14:51:23;;;;;;;7.73;2.60;;;;;;;;;;5096405;28;20192;-67
2022/12/27 14:54:05;;;;;;;3.00;2.40;;;;;;;;;;5096162;28;20488;-67
2022/12/27 14:56:33;;;;;;;5.50;3.37;;;;;;;;;;5062703;28;20528;-68
2022/12/27 14:59:09;;;;;;;4.47;2.90;;;;;;;;;;5096211;28;20542;-67
2022/12/27 15:01:48;;;;;;;5.60;4.00;;;;;;;;;;5096205;28;20980;-67
2022/12/27 15:04:34;;;;;;;9.20;6.23;;;;;;;;;;5095812;28;20457;-67
2022/12/27 15:07:19;;;;;;;5.30;4.03;;;;;;;;;;5096064;28;20453;-67
2022/12/27 15:09:50;;;;;;;7.63;3.30;;;;;;;;;;5095986;28;20533;-67
2022/12/27 15:12:22;;;;;;;5.23;2.20;;;;;;;;;;5095699;28;21055;-68
2022/12/27 15:15:03;;;;;;;6.07;2.60;;;;;;;;;;5095769;28;20460;-67
2022/12/27 15:17:38;;;;;;;7.00;3.17;;;;;;;;;;5095763;28;20937;-67
2022/12/27 15:20:14;;;;;;;6.43;2.50;;;;;;;;;;5095831;28;20477;-67
2022/12/27 15:22:46;;;;;;;4.47;2.17;;;;;;;;;;5095513;28;20202;-67
2022/12/27 15:25:20;;;;;;;5.93;2.53;;;;;;;;;;5095674;28;20846;-67
2022/12/27 15:27:51;;;;;;;3.83;2.40;;;;;;;;;;5095763;28;20450;-67
2022/12/27 15:30:20;;;;;;;2.95;1.92;;;;;;;;;;5095630;28;20881;-68
2022/12/27 15:32:52;;;;;;;6.72;3.20;;;;;;;;;;5095401;28;20222;-67
2022/12/27 15:35:29;;;;;;;7.90;3.43;;;;;;;;;;5095399;28;20198;-67
2022/12/27 15:38:04;;;;;;;4.90;4.22;;;;;;;;;;5095120;28;20457;-68
2022/12/27 15:40:52;;;;;;;9.35;5.03;;;;;;;;;;5095495;28;20192;-67
2022/12/27 15:43:29;;;;;;;4.45;4.05;;;;;;;;;;5090321;28;20720;-67
2022/12/27 15:46:04;;;;;;;10.37;4.23;;;;;;;;;;5094915;28;20330;-67
2022/12/27 15:48:46;;;;;;;4.05;3.75;;;;;;;;;;5095069;28;20452;-67
2022/12/27 15:51:21;;;;;;;5.80;3.60;;;;;;;;;;5095269;28;20226;-67
2022/12/27 15:54:06;;;;;;;4.37;3.97;;;;;;;;;;5095085;28;20219;-67
2022/12/27 15:56:37;;;;;;;4.30;3.90;;;;;;;;;;5094955;28;20524;-68
2022/12/27 15:59:22;;;;;;;7.93;3.00;;;;;;;;;;5094908;28;20450;-67
2022/12/27 16:02:09;;;;;;;4.70;3.90;;;;;;;;;;5094974;28;20286;-67
2022/12/27 16:04:46;;;;;;;10.13;4.23;;;;;;;;;;5094778;28;20548;-67
2022/12/27 16:07:28;;;;;;;3.70;3.40;;;;;;;;;;5094747;28;20535;-67
2022/12/27 16:09:57;;;;;;;8.33;3.70;;;;;;;;;;5094553;28;20449;-67
2022/12/27 16:12:36;;;;;;;8.80;3.90;;;;;;;;;;5094560;28;20476;-67
2022/12/27 16:15:20;;;;;;;5.40;4.00;;;;;;;;;;5094633;28;20453;-67
2022/12/27 16:17:54;;;;;;;3.50;3.20;;;;;;;;;;5094273;28;20197;-67
2022/12/27 16:20:22;;;;;;;3.90;3.60;;;;;;;;;;5094646;28;20283;-67
2022/12/27 16:22:51;;;;;;;5.63;3.00;;;;;;;;;;5094553;28;20540;-67
2022/12/27 16:25:31;;;;;;;4.77;3.67;;;;;;;;;;5094508;28;20449;-67
2022/12/27 16:27:59;;;;;;;7.30;3.80;;;;;;;;;;5094361;28;20851;-68
2022/12/27 16:30:41;;;;;;;8.33;4.00;;;;;;;;;;5094495;28;20287;-68
2022/12/27 16:33:21;;;;;;;4.95;3.40;;;;;;;;;;5094214;28;20631;-67
2022/12/27 16:36:02;;;;;;;7.68;3.83;;;;;;;;;;5094246;28;20188;-67
2022/12/27 16:38:30;;;;;;;4.63;3.83;;;;;;;;;;5094136;28;20195;-67
2022/12/27 16:41:06;;;;;;;4.60;3.70;;;;;;;;;;5094314;28;20454;-68
2022/12/27 16:43:47;;;;;;;4.13;3.77;;;;;;;;;;5094216;28;20883;-67
2022/12/27 16:46:28;;;;;;;5.95;4.03;;;;;;;;;;5093890;28;20560;-67